createdAt,value
2018-07-21T00:00:21.277Z,6.97
2018-07-21T00:02:49.622Z,12.73
2018-07-21T00:05:18.094Z,6.73
2018-07-21T00:07:46.491Z,5.93
2018-07-21T00:10:15.111Z,5.37
2018-07-21T00:12:43.446Z,5.67
2018-07-21T00:15:11.955Z,5.70
2018-07-21T00:17:40.525Z,5.83
2018-07-21T00:20:15.387Z,11.37
2018-07-21T00:22:43.729Z,5.33
2018-07-21T00:25:12.116Z,6.10
2018-07-21T00:27:40.491Z,5.90
2018-07-21T00:30:09.071Z,6.10
2018-07-21T00:32:37.485Z,5.93
2018-07-21T00:35:05.982Z,6.03
2018-07-21T00:37:34.321Z,8.47
2018-07-21T00:40:02.882Z,6.10
2018-07-21T00:42:31.313Z,6.63
2018-07-21T00:44:59.574Z,8.60
2018-07-21T00:47:27.982Z,5.37
2018-07-21T00:49:56.384Z,5.90
2018-07-21T00:52:24.908Z,8.20
2018-07-21T00:54:53.403Z,6.40
2018-07-21T00:57:21.857Z,6.80
2018-07-21T00:59:50.130Z,8.20
2018-07-21T01:02:18.643Z,6.10
2018-07-21T01:04:47.319Z,5.57
2018-07-21T01:07:15.792Z,5.73
2018-07-21T01:09:44.172Z,5.63
2018-07-21T01:12:16.112Z,6.03
2018-07-21T01:14:44.394Z,5.40
2018-07-21T01:17:12.664Z,6.20
2018-07-21T01:19:41.080Z,5.43
2018-07-21T01:22:09.395Z,5.30
2018-07-21T01:24:37.725Z,5.20
2018-07-21T01:27:06.183Z,6.23
2018-07-21T01:29:34.524Z,5.27
2018-07-21T01:32:02.856Z,5.20
2018-07-21T01:34:31.684Z,4.50
2018-07-21T01:37:00.599Z,5.10
2018-07-21T01:39:28.906Z,4.90
2018-07-21T01:41:57.239Z,4.90
2018-07-21T01:44:25.563Z,4.67
2018-07-21T01:46:53.875Z,5.47
2018-07-21T01:49:22.169Z,5.43
2018-07-21T01:51:50.466Z,5.20
2018-07-21T01:54:18.763Z,4.93
2018-07-21T01:56:47.092Z,4.67
2018-07-21T01:59:15.350Z,5.07
2018-07-21T02:01:43.642Z,5.30
2018-07-21T02:04:11.954Z,5.63
2018-07-21T02:06:40.249Z,5.13
2018-07-21T02:09:09.975Z,5.17
2018-07-21T02:11:38.385Z,4.97
2018-07-21T02:14:06.743Z,5.03
2018-07-21T02:16:35.234Z,5.47
2018-07-21T02:19:03.749Z,6.03
2018-07-21T02:21:32.279Z,5.83
2018-07-21T02:24:00.583Z,5.40
2018-07-21T02:26:28.987Z,5.80
2018-07-21T02:28:57.246Z,5.30
2018-07-21T02:31:25.611Z,5.50
2018-07-21T02:33:53.956Z,5.37
2018-07-21T02:36:22.364Z,5.40
2018-07-21T02:38:51.001Z,5.17
2018-07-21T02:41:19.328Z,5.60
2018-07-21T02:43:47.589Z,5.63
2018-07-21T02:46:15.880Z,8.00
2018-07-21T02:48:44.215Z,5.23
2018-07-21T02:51:12.543Z,7.83
2018-07-21T02:53:40.805Z,5.23
2018-07-21T02:56:09.135Z,5.07
2018-07-21T02:58:37.460Z,5.30
2018-07-21T03:01:05.837Z,5.57
2018-07-21T03:03:34.305Z,4.80
2018-07-21T03:06:02.735Z,5.43
2018-07-21T03:08:31.092Z,5.83
2018-07-21T03:10:59.589Z,5.90
2018-07-21T03:13:27.870Z,5.87
2018-07-21T03:15:56.222Z,5.30
2018-07-21T03:18:24.537Z,5.67
2018-07-21T03:20:52.911Z,6.67
2018-07-21T03:23:21.292Z,6.03
2018-07-21T03:25:49.605Z,8.00
2018-07-21T03:28:17.949Z,5.57
2018-07-21T03:30:46.312Z,6.53
2018-07-21T03:33:14.546Z,6.53
2018-07-21T03:35:42.903Z,5.67
2018-07-21T03:38:11.187Z,5.70
2018-07-21T03:40:39.481Z,5.93
2018-07-21T03:43:14.283Z,6.13
2018-07-21T03:45:42.551Z,9.87
2018-07-21T03:48:10.890Z,4.73
2018-07-21T03:50:39.190Z,6.50
2018-07-21T03:53:07.467Z,6.97
2018-07-21T03:55:35.942Z,6.33
2018-07-21T03:58:04.305Z,5.83
2018-07-21T04:00:32.668Z,6.97
2018-07-21T04:03:01.017Z,6.07
2018-07-21T04:05:29.360Z,6.77
2018-07-21T04:07:57.712Z,5.73
2018-07-21T04:10:26.003Z,6.00
2018-07-21T04:12:54.842Z,6.30
2018-07-21T04:15:23.158Z,5.70
2018-07-21T04:17:51.451Z,5.83
2018-07-21T04:20:19.793Z,6.97
2018-07-21T04:22:48.099Z,6.80
2018-07-21T04:25:16.383Z,6.50
2018-07-21T04:27:44.710Z,10.03
2018-07-21T04:30:13.079Z,6.10
2018-07-21T04:32:41.392Z,5.97
2018-07-21T04:35:09.902Z,8.97
2018-07-21T04:37:38.442Z,6.27
2018-07-21T04:40:06.949Z,6.53
2018-07-21T04:42:35.452Z,8.23
2018-07-21T04:45:03.997Z,5.73
2018-07-21T04:47:32.418Z,6.40
2018-07-21T04:50:00.895Z,6.77
2018-07-21T04:52:29.252Z,6.13
2018-07-21T04:54:57.554Z,9.70
2018-07-21T04:57:25.925Z,21.80
2018-07-21T04:59:54.271Z,9.97
2018-07-21T05:02:22.546Z,7.30
2018-07-21T05:04:50.921Z,12.97
2018-07-21T05:07:19.388Z,7.17
2018-07-21T05:09:47.726Z,5.73
2018-07-21T05:12:16.122Z,5.07
2018-07-21T05:14:44.469Z,5.03
2018-07-21T05:17:12.766Z,7.13
2018-07-21T05:19:41.229Z,5.37
2018-07-21T05:22:09.547Z,5.43
2018-07-21T05:24:37.906Z,4.80
2018-07-21T05:27:06.519Z,5.73
2018-07-21T05:29:34.958Z,5.47
2018-07-21T05:32:03.333Z,5.60
2018-07-21T05:34:31.955Z,5.40
2018-07-21T05:37:00.294Z,5.73
2018-07-21T05:39:28.619Z,7.90
2018-07-21T05:41:57.037Z,5.73
2018-07-21T05:44:25.447Z,8.00
2018-07-21T05:46:53.799Z,5.00
2018-07-21T05:49:22.095Z,5.13
2018-07-21T05:51:50.383Z,7.10
2018-07-21T05:54:18.746Z,5.10
2018-07-21T05:56:47.090Z,5.07
2018-07-21T05:59:15.388Z,5.00
2018-07-21T06:01:43.933Z,5.63
2018-07-21T06:04:12.261Z,4.83
2018-07-21T06:06:40.567Z,4.70
2018-07-21T06:09:10.391Z,5.03
2018-07-21T06:11:38.898Z,7.17
2018-07-21T06:14:07.335Z,4.73
2018-07-21T06:16:35.902Z,5.27
2018-07-21T06:19:04.447Z,5.17
2018-07-21T06:21:32.763Z,4.70
2018-07-21T06:24:01.406Z,4.40
2018-07-21T06:26:30.174Z,5.13
2018-07-21T06:28:58.274Z,5.43
2018-07-21T06:31:26.551Z,6.20
2018-07-21T06:33:54.881Z,4.60
2018-07-21T06:36:23.643Z,5.23
2018-07-21T06:38:51.982Z,5.10
2018-07-21T06:41:20.325Z,5.20
2018-07-21T06:43:48.654Z,5.80
2018-07-21T06:46:17.106Z,5.20
2018-07-21T06:48:45.482Z,4.87
2018-07-21T06:51:13.787Z,5.17
2018-07-21T06:53:42.155Z,4.67
2018-07-21T06:56:10.235Z,5.97
2018-07-21T06:58:38.710Z,5.90
2018-07-21T07:01:07.399Z,5.20
2018-07-21T07:03:35.879Z,5.30
2018-07-21T07:06:04.301Z,7.83
2018-07-21T07:08:32.684Z,5.20
2018-07-21T07:11:01.455Z,4.80
2018-07-21T07:13:29.804Z,4.77
2018-07-21T07:15:58.248Z,11.90
2018-07-21T07:18:26.802Z,7.63
2018-07-21T07:20:55.116Z,5.13
2018-07-21T07:23:23.427Z,4.63
2018-07-21T07:25:51.834Z,5.03
2018-07-21T07:28:20.219Z,5.70
2018-07-21T07:30:50.654Z,8.47
2018-07-21T07:33:18.964Z,4.53
2018-07-21T07:35:47.323Z,5.67
2018-07-21T07:38:15.657Z,7.07
2018-07-21T07:40:44.032Z,5.77
2018-07-21T07:43:12.459Z,4.60
2018-07-21T07:45:40.578Z,6.40
2018-07-21T07:48:08.667Z,5.43
2018-07-21T07:50:37.193Z,5.13
2018-07-21T07:53:05.786Z,6.33
2018-07-21T07:55:34.510Z,4.60
2018-07-21T07:58:04.367Z,4.10
2018-07-21T08:00:33.183Z,4.63
2018-07-21T08:03:02.443Z,5.33
2018-07-21T08:05:31.167Z,5.23
2018-07-21T08:07:59.555Z,5.27
2018-07-21T08:10:28.155Z,6.07
2018-07-21T08:12:56.525Z,4.33
2018-07-21T08:15:24.897Z,4.37
2018-07-21T08:17:53.247Z,4.33
2018-07-21T08:20:21.775Z,4.23
2018-07-21T08:22:50.272Z,4.23
2018-07-21T08:25:18.624Z,4.13
2018-07-21T08:27:46.914Z,3.77
2018-07-21T08:30:15.288Z,4.00
2018-07-21T08:32:44.017Z,4.27
2018-07-21T08:35:12.411Z,4.27
2018-07-21T08:37:40.899Z,3.97
2018-07-21T08:40:16.011Z,4.70
2018-07-21T08:42:44.431Z,5.27
2018-07-21T08:45:12.840Z,6.10
2018-07-21T08:47:41.249Z,5.50
2018-07-21T08:50:09.594Z,6.00
2018-07-21T08:52:37.918Z,6.10
2018-07-21T08:55:06.400Z,12.00
2018-07-21T08:57:34.929Z,10.83
2018-07-21T09:00:03.460Z,7.27
2018-07-21T09:02:31.928Z,7.33
2018-07-21T09:05:01.543Z,8.00
2018-07-21T09:07:29.932Z,7.90
2018-07-21T09:09:58.290Z,9.40
2018-07-21T09:12:26.642Z,8.47
2018-07-21T09:14:55.332Z,7.23
2018-07-21T09:17:23.663Z,8.30
2018-07-21T09:19:52.541Z,9.63
2018-07-21T09:22:20.909Z,8.33
2018-07-21T09:24:49.639Z,6.87
2018-07-21T09:27:17.946Z,7.83
2018-07-21T09:29:46.278Z,8.37
2018-07-21T09:32:14.874Z,11.63
2018-07-21T09:34:43.938Z,9.00
2018-07-21T09:39:47.049Z,7.57
2018-07-21T09:42:15.430Z,9.20
2018-07-21T09:44:43.748Z,8.17
2018-07-21T09:47:12.097Z,11.10
2018-07-21T09:49:40.681Z,11.03
2018-07-21T09:52:09.092Z,8.53
2018-07-21T09:54:37.633Z,10.20
2018-07-21T09:57:06.055Z,12.57
2018-07-21T09:59:34.469Z,41.43
2018-07-21T10:02:03.398Z,19.03
2018-07-21T10:04:32.041Z,18.23
2018-07-21T10:07:00.628Z,14.33
2018-07-21T10:09:29.272Z,16.63
2018-07-21T10:11:57.807Z,19.70
2018-07-21T10:14:26.341Z,14.30
2018-07-21T10:16:54.953Z,11.23
2018-07-21T10:19:23.435Z,13.23
2018-07-21T10:21:51.928Z,9.57
2018-07-21T10:24:25.847Z,8.07
2018-07-21T10:27:15.187Z,7.13
2018-07-21T10:29:44.059Z,7.57
2018-07-21T10:32:12.896Z,7.07
2018-07-21T10:34:42.890Z,7.40
2018-07-21T10:37:11.259Z,7.70
2018-07-21T10:39:39.808Z,10.23
2018-07-21T10:42:08.855Z,7.80
2018-07-21T10:44:37.154Z,8.63
2018-07-21T10:47:05.522Z,7.70
2018-07-21T10:49:33.991Z,7.40
2018-07-21T10:52:02.318Z,7.40
2018-07-21T10:54:30.925Z,6.97
2018-07-21T10:56:59.261Z,7.03
2018-07-21T10:59:27.525Z,7.10
2018-07-21T11:01:55.834Z,7.07
2018-07-21T11:04:24.376Z,9.10
2018-07-21T11:06:52.450Z,9.13
2018-07-21T11:09:20.796Z,8.73
2018-07-21T11:11:49.231Z,9.23
2018-07-21T11:14:17.808Z,9.47
2018-07-21T11:16:46.125Z,11.77
2018-07-21T11:19:14.671Z,10.20
2018-07-21T11:21:43.056Z,13.60
2018-07-21T11:24:11.387Z,9.73
2018-07-21T11:26:39.816Z,9.40
2018-07-21T11:29:08.199Z,11.43
2018-07-21T11:31:36.660Z,12.20
2018-07-21T11:34:04.975Z,9.93
2018-07-21T11:36:33.686Z,11.23
2018-07-21T11:39:01.984Z,11.00
2018-07-21T11:41:30.311Z,11.13
2018-07-21T11:43:58.651Z,11.93
2018-07-21T11:46:27.077Z,11.83
2018-07-21T11:48:55.214Z,10.50
2018-07-21T11:51:23.648Z,9.80
2018-07-21T11:53:52.046Z,12.77
2018-07-21T11:56:20.570Z,11.33
2018-07-21T11:58:48.855Z,9.27
2018-07-21T12:01:17.451Z,9.83
2018-07-21T12:03:45.946Z,9.70
2018-07-21T12:06:14.237Z,7.67
2018-07-21T12:08:42.561Z,8.87
2018-07-21T12:11:10.834Z,8.87
2018-07-21T12:13:39.243Z,8.07
2018-07-21T12:16:07.686Z,7.57
2018-07-21T12:18:36.097Z,7.40
2018-07-21T12:21:04.414Z,8.40
2018-07-21T12:23:32.855Z,8.40
2018-07-21T12:26:01.173Z,9.27
2018-07-21T12:28:29.790Z,9.37
2018-07-21T12:30:58.214Z,9.93
2018-07-21T12:33:26.539Z,9.10
2018-07-21T12:35:54.994Z,10.40
2018-07-21T12:38:23.373Z,10.00
2018-07-21T12:40:51.729Z,11.90
2018-07-21T12:43:20.277Z,8.63
2018-07-21T12:45:48.691Z,11.20
2018-07-21T12:48:17.032Z,12.60
2018-07-21T12:50:45.443Z,8.80
2018-07-21T12:53:13.982Z,15.93
2018-07-21T12:55:42.559Z,10.40
2018-07-21T12:58:11.070Z,18.80
2018-07-21T13:00:39.517Z,13.23
2018-07-21T13:03:08.343Z,9.00
2018-07-21T13:05:36.767Z,12.23
2018-07-21T13:08:05.359Z,9.27
2018-07-21T13:10:33.512Z,16.73
2018-07-21T13:13:01.968Z,12.17
2018-07-21T13:15:30.379Z,12.37
2018-07-21T13:17:58.798Z,9.97
2018-07-21T13:20:27.162Z,9.50
2018-07-21T13:22:55.502Z,10.13
2018-07-21T13:25:23.833Z,8.13
2018-07-21T13:27:52.192Z,13.40
2018-07-21T13:30:20.626Z,13.60
2018-07-21T13:32:49.019Z,11.27
2018-07-21T13:35:17.326Z,10.50
2018-07-21T13:37:45.711Z,12.10
2018-07-21T13:40:14.071Z,9.00
2018-07-21T13:42:42.407Z,8.67
2018-07-21T13:45:10.844Z,7.37
2018-07-21T13:47:39.259Z,7.53
2018-07-21T13:50:07.721Z,8.13
2018-07-21T13:52:36.129Z,7.87
2018-07-21T13:55:04.864Z,6.40
2018-07-21T13:57:33.414Z,6.47
2018-07-21T14:00:01.884Z,9.20
2018-07-21T14:02:30.184Z,9.10
2018-07-21T14:04:58.505Z,7.83
2018-07-21T14:07:27.281Z,6.47
2018-07-21T14:09:55.517Z,6.07
2018-07-21T14:12:25.028Z,6.07
2018-07-21T14:14:54.715Z,5.37
2018-07-21T14:17:23.811Z,6.80
2018-07-21T14:19:53.095Z,7.23
2018-07-21T14:22:22.552Z,6.23
2018-07-21T14:24:51.959Z,6.90
2018-07-21T14:27:21.476Z,6.63
2018-07-21T14:29:51.328Z,6.27
2018-07-21T14:32:19.633Z,6.93
2018-07-21T14:34:48.467Z,7.03
2018-07-21T14:37:16.863Z,6.80
2018-07-21T14:39:45.212Z,6.20
2018-07-21T14:42:13.536Z,7.70
2018-07-21T14:44:42.062Z,6.03
2018-07-21T14:47:10.054Z,6.27
2018-07-21T14:49:38.428Z,6.37
2018-07-21T14:52:06.797Z,6.73
2018-07-21T14:54:35.373Z,6.47
2018-07-21T14:57:03.396Z,7.33
2018-07-21T14:59:31.959Z,6.30
2018-07-21T15:02:00.321Z,5.43
2018-07-21T15:04:28.861Z,6.37
2018-07-21T15:06:57.169Z,5.83
2018-07-21T15:09:25.470Z,7.10
2018-07-21T15:11:54.109Z,12.67
2018-07-21T15:14:22.449Z,7.37
2018-07-21T15:16:50.728Z,6.70
2018-07-21T15:19:19.051Z,14.53
2018-07-21T15:21:47.403Z,7.17
2018-07-21T15:24:15.765Z,6.30
2018-07-21T15:26:44.275Z,5.77
2018-07-21T15:29:13.700Z,7.23
2018-07-21T15:31:43.234Z,7.07
2018-07-21T15:34:11.767Z,8.37
2018-07-21T15:36:40.242Z,7.23
2018-07-21T15:39:13.378Z,11.53
2018-07-21T15:41:42.129Z,7.63
2018-07-21T15:44:10.685Z,6.90
2018-07-21T15:46:41.398Z,7.73
2018-07-21T15:49:09.848Z,6.97
2018-07-21T15:51:38.418Z,6.20
2018-07-21T15:54:09.230Z,7.57
2018-07-21T15:56:37.905Z,7.57
2018-07-21T15:59:06.636Z,6.80
2018-07-21T16:01:35.244Z,7.27
2018-07-21T16:04:03.960Z,6.20
2018-07-21T16:06:32.571Z,7.67
2018-07-21T16:09:01.308Z,10.90
2018-07-21T16:11:30.272Z,8.03
2018-07-21T16:13:58.619Z,7.50
2018-07-21T16:16:27.047Z,6.43
2018-07-21T16:18:55.512Z,7.20
2018-07-21T16:21:25.236Z,8.40
2018-07-21T16:23:53.571Z,7.13
2018-07-21T16:26:22.597Z,6.87
2018-07-21T16:28:51.446Z,9.63
2018-07-21T16:31:19.894Z,7.60
2018-07-21T16:33:48.410Z,8.07
2018-07-21T16:36:17.066Z,7.60
2018-07-21T16:38:45.911Z,6.80
2018-07-21T16:41:14.371Z,8.00
2018-07-21T16:43:42.803Z,8.53
2018-07-21T16:46:11.211Z,8.40
2018-07-21T16:48:39.746Z,8.63
2018-07-21T16:51:08.346Z,11.43
2018-07-21T16:53:36.783Z,7.77
2018-07-21T16:56:05.103Z,25.07
2018-07-21T16:58:33.425Z,16.33
2018-07-21T17:01:01.824Z,8.93
2018-07-21T17:03:30.129Z,8.10
2018-07-21T17:05:58.554Z,8.27
2018-07-21T17:08:26.872Z,7.70
2018-07-21T17:10:55.364Z,9.27
2018-07-21T17:13:23.799Z,7.87
2018-07-21T17:15:52.260Z,11.50
2018-07-21T17:18:23.543Z,8.07
2018-07-21T17:20:52.812Z,8.47
2018-07-21T17:23:21.155Z,7.13
2018-07-21T17:25:49.549Z,7.83
2018-07-21T17:28:18.778Z,7.80
2018-07-21T17:30:47.048Z,7.90
2018-07-21T17:33:16.375Z,7.90
2018-07-21T17:35:45.208Z,7.53
2018-07-21T17:38:14.862Z,8.83
2018-07-21T17:40:43.195Z,7.27
2018-07-21T17:43:11.560Z,6.87
2018-07-21T17:45:39.903Z,6.73
2018-07-21T17:48:09.869Z,7.37
2018-07-21T17:50:38.250Z,7.00
2018-07-21T17:53:06.675Z,8.33
2018-07-21T17:55:35.079Z,8.93
2018-07-21T17:58:03.654Z,7.53
2018-07-21T18:00:32.718Z,8.63
2018-07-21T18:03:01.084Z,8.10
2018-07-21T18:05:29.593Z,8.37
2018-07-21T18:09:01.160Z,8.47
2018-07-21T18:11:29.599Z,8.50
2018-07-21T18:13:58.255Z,8.67
2018-07-21T18:16:26.952Z,9.63
2018-07-21T18:18:55.371Z,9.37
2018-07-21T18:21:23.735Z,9.47
2018-07-21T18:23:52.848Z,10.17
2018-07-21T18:26:21.621Z,9.87
2018-07-21T18:28:49.996Z,10.73
2018-07-21T18:31:18.347Z,9.80
2018-07-21T18:33:46.773Z,10.23
2018-07-21T18:36:15.091Z,9.83
2018-07-21T18:38:44.886Z,9.97
2018-07-21T18:41:13.259Z,9.87
2018-07-21T18:43:42.928Z,9.67
2018-07-21T18:46:11.234Z,9.13
2018-07-21T18:48:39.682Z,9.70
2018-07-21T18:51:08.203Z,8.53
2018-07-21T18:53:37.634Z,9.77
2018-07-21T18:56:06.317Z,10.07
2018-07-21T18:58:34.877Z,10.60
2018-07-21T19:02:07.736Z,10.83
2018-07-21T19:04:36.970Z,9.80
2018-07-21T19:07:05.642Z,10.00
2018-07-21T19:09:34.313Z,9.77
2018-07-21T19:12:08.072Z,12.50
2018-07-21T19:14:36.516Z,12.20
2018-07-21T19:17:04.927Z,9.40
2018-07-21T19:19:38.698Z,8.97
2018-07-21T19:22:09.483Z,8.97
2018-07-21T19:24:37.807Z,8.93
2018-07-21T19:27:11.799Z,9.20
2018-07-21T19:29:40.287Z,8.43
2018-07-21T19:32:14.183Z,9.33
2018-07-21T19:37:14.913Z,7.67
2018-07-21T19:39:43.557Z,7.53
2018-07-21T19:42:12.019Z,6.53
2018-07-21T19:44:40.375Z,6.60
2018-07-21T19:47:08.817Z,13.83
2018-07-21T19:49:39.623Z,18.50
2018-07-21T19:52:08.070Z,21.10
2018-07-21T19:54:36.460Z,19.63
2018-07-21T19:57:04.823Z,9.10
2018-07-21T19:59:33.154Z,7.10
2018-07-21T20:02:01.871Z,12.37
2018-07-21T20:04:30.338Z,6.27
2018-07-21T20:06:58.769Z,6.70
2018-07-21T20:09:27.779Z,7.17
2018-07-21T20:11:56.840Z,7.50
2018-07-21T20:14:25.433Z,7.40
2018-07-21T20:16:53.967Z,7.30
2018-07-21T20:19:22.275Z,7.13
2018-07-21T20:21:50.665Z,7.43
2018-07-21T20:24:19.140Z,7.70
2018-07-21T20:26:47.467Z,8.07
2018-07-21T20:29:16.832Z,8.10
2018-07-21T20:31:45.965Z,7.80
2018-07-21T20:34:15.289Z,10.23
2018-07-21T20:36:44.786Z,27.27
2018-07-21T20:39:13.817Z,16.87
2018-07-21T20:41:44.262Z,19.17
2018-07-21T20:44:13.146Z,20.37
2018-07-21T20:46:41.568Z,24.63
2018-07-21T20:49:09.956Z,20.73
2018-07-21T20:51:38.523Z,12.97
2018-07-21T20:54:07.099Z,16.03
2018-07-21T20:56:35.415Z,13.40
2018-07-21T20:59:03.471Z,12.73
2018-07-21T21:01:31.799Z,16.47
2018-07-21T21:04:00.189Z,11.13
2018-07-21T21:06:28.697Z,11.70
2018-07-21T21:08:57.132Z,11.17
2018-07-21T21:11:25.479Z,11.40
2018-07-21T21:13:53.830Z,11.03
2018-07-21T21:16:22.355Z,12.03
2018-07-21T21:18:50.757Z,13.03
2018-07-21T21:21:19.143Z,13.10
2018-07-21T21:23:47.730Z,13.03
2018-07-21T21:26:16.274Z,12.43
2018-07-21T21:28:44.699Z,12.67
2018-07-21T21:31:13.126Z,13.47
2018-07-21T21:33:41.628Z,12.67
2018-07-21T21:36:10.060Z,12.10
2018-07-21T21:38:38.418Z,14.13
2018-07-21T21:41:06.883Z,13.93
2018-07-21T21:43:35.456Z,11.27
2018-07-21T21:46:03.962Z,11.73
2018-07-21T21:48:32.062Z,12.87
2018-07-21T21:51:00.512Z,12.03
2018-07-21T21:53:28.981Z,11.17
2018-07-21T21:55:57.423Z,13.27
2018-07-21T21:58:25.778Z,10.90
2018-07-21T22:00:59.935Z,10.53
2018-07-21T22:03:30.383Z,11.40
2018-07-21T22:05:59.451Z,11.17
2018-07-21T22:08:28.083Z,10.00
2018-07-21T22:10:56.480Z,10.10
2018-07-21T22:13:25.363Z,11.00
2018-07-21T22:15:53.679Z,10.70
2018-07-21T22:18:22.175Z,11.47
2018-07-21T22:20:50.543Z,9.93
2018-07-21T22:23:18.912Z,9.77
2018-07-21T22:25:47.236Z,10.70
2018-07-21T22:28:15.665Z,12.37
2018-07-21T22:30:43.961Z,10.27
2018-07-21T22:33:12.382Z,10.90
2018-07-21T22:35:40.995Z,10.73
2018-07-21T22:38:09.401Z,10.43
2018-07-21T22:40:37.718Z,10.20
2018-07-21T22:43:05.989Z,10.50
2018-07-21T22:45:34.328Z,11.77
2018-07-21T22:48:02.631Z,10.77
2018-07-21T22:50:30.907Z,12.27
2018-07-21T22:52:59.315Z,11.80
2018-07-21T22:55:27.639Z,11.90
2018-07-21T22:57:55.943Z,12.00
2018-07-21T23:00:24.266Z,11.50
2018-07-21T23:02:52.523Z,12.20
2018-07-21T23:05:20.820Z,12.13
2018-07-21T23:07:49.132Z,11.50
2018-07-21T23:10:17.498Z,12.07
2018-07-21T23:12:45.846Z,12.37
2018-07-21T23:15:14.316Z,12.10
2018-07-21T23:17:42.682Z,12.73
2018-07-21T23:20:11.340Z,11.53
2018-07-21T23:22:39.716Z,13.87
2018-07-21T23:25:08.028Z,12.30
2018-07-21T23:27:36.615Z,13.27
2018-07-21T23:30:05.507Z,11.23
2018-07-21T23:32:33.875Z,12.80
2018-07-21T23:35:02.283Z,12.47
2018-07-21T23:37:30.944Z,11.80
2018-07-21T23:39:59.477Z,13.17
2018-07-21T23:42:27.795Z,13.63
2018-07-21T23:44:56.250Z,11.93
2018-07-21T23:47:24.723Z,13.50
2018-07-21T23:49:53.087Z,13.73
2018-07-21T23:52:23.251Z,14.97
2018-07-21T23:54:51.922Z,13.63
2018-07-21T23:57:20.391Z,14.43
2018-07-21T23:59:48.695Z,16.80
